METAR AND TAF INFORMATION
METAR FOR YSCB
ADDS - METARS form results

(2315 UTC 24 March 2019)
Data provider http://aviationweather.gov/metar/data/
 
METAR text: YSCB 242302Z AUTO 32017G27KT 9999 // OVC012 OVC017 17/15 Q1009 FM0100 33020G30KT 9999 -RA BKN020 FM2302 MOD TURB BLW 5000FT
Conditions at: YSCB (CANBERRA (CIV/MI, AU) observed 2302 UTC 24 March 2019
Temperature: 17.0°C (63°F)
Dewpoint: 15.0°C (59°F) [RH = 88%]
Pressure (altimeter): 29.79 inches Hg (1009.0 mb)
Winds: from the NW (320 degrees) at 20 MPH (17 knots; 8.7 m/s)
gusting to 31 MPH (27 knots; 13.9 m/s)
Visibility: 6 or more miles (10+ km)
Ceiling: 1200 feet AGL
Clouds: overcast cloud deck at 1200 feet AGL
overcast cloud deck at 1700 feet AGL
Weather: no significant weather observed at this time

METAR text: YSCB 242300Z AUTO 32018KT 9999 // OVC014 17/15 Q1009 RF00/0/000/0 FM0100 33020G30KT 9999 -RA BKN020 FM2300 MOD TURB BLW 5000FT
Conditions at: YSCB (CANBERRA (CIV/MI, AU) observed 2300 UTC 24 March 2019
Temperature: 17.0°C (63°F)
Dewpoint: 15.0°C (59°F) [RH = 88%]
Pressure (altimeter): 29.79 inches Hg (1009.0 mb)
Winds: from the NW (320 degrees) at 21 MPH (18 knots; 9.3 m/s)
Visibility: 6 or more miles (10+ km)
Ceiling: 1400 feet AGL
Clouds: overcast cloud deck at 1400 feet AGL
Weather: no significant weather observed at this time

METAR text: YSCB 242233Z AUTO 31018G28KT 9999 // OVC012 17/15 Q1010 FM0100 33020G30KT 9999 -RA BKN020 FM2233 MOD TURB BLW 5000FT
Conditions at: YSCB (CANBERRA (CIV/MI, AU) observed 2233 UTC 24 March 2019
Temperature: 17.0°C (63°F)
Dewpoint: 15.0°C (59°F) [RH = 88%]
Pressure (altimeter): 29.82 inches Hg (1010.0 mb)
Winds: from the NW (310 degrees) at 21 MPH (18 knots; 9.3 m/s)
gusting to 32 MPH (28 knots; 14.4 m/s)
Visibility: 6 or more miles (10+ km)
Ceiling: 1200 feet AGL
Clouds: overcast cloud deck at 1200 feet AGL
Weather: no significant weather observed at this time

METAR text: YSCB 242230Z AUTO 32019KT 9999 // OVC012 17/15 Q1010 RF00/0/000/0 FM0100 33020G30KT 9999 -RA BKN020 FM2230 MOD TURB BLW 5000FT
Conditions at: YSCB (CANBERRA (CIV/MI, AU) observed 2230 UTC 24 March 2019
Temperature: 17.0°C (63°F)
Dewpoint: 15.0°C (59°F) [RH = 88%]
Pressure (altimeter): 29.82 inches Hg (1010.0 mb)
Winds: from the NW (320 degrees) at 22 MPH (19 knots; 9.8 m/s)
Visibility: 6 or more miles (10+ km)
Ceiling: 1200 feet AGL
Clouds: overcast cloud deck at 1200 feet AGL
Weather: no significant weather observed at this time

Forecast for: AMD
Text: TAF AMD YSCB 241856Z 2418/2518 33022G35KT 9999 -RA BKN014
Forecast period: 1800 UTC 24 March 2019 to 0300 UTC 25 March 2019
Forecast type: FROM: standard forecast or significant change
Winds: from the NNW (330 degrees) at 25 MPH (22 knots; 11.3 m/s)
gusting to 40 MPH (35 knots; 18.0 m/s)
Visibility: 6 or more miles 10+ km)
Ceiling: 1400 feet AGL
Clouds: broken clouds at 1400 feet AGL
Weather: -RA  (light rain)
Text: BECMG 2503/2505 30018G28KT 9999 -RA BKN030
Forecast period: 0300 to 0800 UTC 25 March 2019
Forecast type: BECOMING: Conditions expected to become as follows by 0500 UTC 25 March 2019
Winds: from the WNW (300 degrees) at 21 MPH (18 knots; 9.3 m/s)
gusting to 32 MPH (28 knots; 14.4 m/s)
Visibility: 6 or more miles 10+ km)
Ceiling: 3000 feet AGL
Clouds: broken clouds at 3000 feet AGL
Weather: -RA  (light rain)
Text: FM250800 30015KT 9999 SCT040
Forecast period: 0800 to 1800 UTC 25 March 2019
Forecast type: FROM: standard forecast or significant change
Winds: from the WNW (300 degrees) at 17 MPH (15 knots; 7.7 m/s)
Visibility: 6 or more miles 10+ km)
Ceiling: at least 12,000 feet AGL
Clouds: scattered clouds at 4000 feet AGL
Weather: no significant weather forecast for this period
Text: TEMPO 2418/2508 5000 RA BKN010
Forecast period: 1800 UTC 24 March 2019 to 0800 UTC 25 March 2019
Forecast type: TEMPORARY: The following changes expected for less than half the time period
Visibility: 3 miles (5 km)
Ceiling: 1000 feet AGL
Clouds: broken clouds at 1000 feet AGL
Weather: RA  (moderate rain)

 AIRPORT MAP

 RUNWAY INFORMATION
Runway 12 Runway length 5509 ft Runway width 148 ft
Runway elevation 1849 ft Runway displaced threshold 0 ft Runway heading 130
Runway 30 Runway length 5509 ft Runway width 148 ft
Runway elevation 1886 ft Runway displaced threshold 214 ft Runway heading 310
Runway 17 Runway length 10771 ft Runway width 148 ft
Runway elevation 1874 ft Runway displaced threshold 0 ft Runway heading 180
Runway 35 Runway length 10771 ft Runway width 148 ft
Runway elevation 1870 ft Runway displaced threshold 1968 ft Runway heading 360

 AIRPORT FREQUENCIES
Type APP/DEP EA Name Approach/D Frequency 124.5 MHZ
Type APP/DEP WE Name Approach/D Frequency 125.9 MHZ
Type ATIS Name ATIS Frequency 127.45 MHZ
Type ATIS/VOR Name ATIS AH Frequency 116.7 MHZ
Type GCCD Name GND CLNC D Frequency 121.7 MHZ
Type TWR/CTAF Name TWR (CTAF Frequency 118.7 MHZ

 AIRPORT NEAR NAVIGATION AIDS
Type VOR-DME Name Canberra Frequency 116700 KHZ
Type NDB Name Canberra Frequency 263 KHZ
Type NDB Name Church Creek Frequency 248 KHZ



The South Africal Virtual Air Force